Terminal Aerodrome Forecast
Issued by NWS

Home | Current Version | Previous Version | Text Only | Print | Product List | Glossary On
Versions: 1 2 3 4 5 6 7 8 9 10 11 12 13 14 15 16 17 18 19 20
000
FTAK31 PANC 270804 AAA
TAFADU
TAF AMD
PADU 270804Z 2708/2806 17008KT P6SM -RA BKN035
     FM271200 18010KT 6SM -SHRA BR SCT006 BKN015 OVC040=

USA.gov is the U.S. government's official web portal to all federal, state and local government web resources and services.